Hachinohemaru — JE3089 — position and weather

sailwx.info

Track history (hours):
 
Tides and Currents Weather Stations Pressure Air Temp Water Temp Dewpoint Dewpoint Depression Visibility Wind Speed Wind Dir Waves Ship Positions

Hachinohemaru

Last reported at 2016-Feb-05 16:07 UTC. Time now 2016-Feb-07 17:21 UTC.
Position N 36°08' E 140°47'.

Length 168 m; draft 6.5 m.

Type: Cargo ship. MMSI: 431700018.

Date/timePositionNaut miles runAvg speedWind from/ knotsBaromVisibWave heightAir tempDewpointWater temp
2016-Feb-05 16:07N 36°08' E 140°47'814.2
2016-Feb-05 15:33N 36°00' E 140°43'5 0.3
2016-Feb-05 00:08N 35°56' E 140°41'0 0.1
2016-Feb-04 23:14N 35°56' E 140°41'0 0.1
2016-Feb-04 22:32N 35°56' E 140°41'0 0.0
2016-Feb-04 20:32N 35°56' E 140°41'0 0.0
2016-Feb-04 19:29N 35°56' E 140°41'5 5.7
2016-Feb-04 18:33N 35°58' E 140°47'1513.3
2016-Feb-04 17:26N 35°45' E 140°57'2513.0
2016-Feb-04 15:32N 35°23' E 140°45'3014.6
2016-Feb-04 13:31N 34°57' E 140°27'1413.6
2016-Feb-04 12:27N 34°46' E 140°16'1617.1
2016-Feb-04 11:30N 34°44' E 139°57'  
2016-Jan-30 17:33N 34°27' E 138°28'6015.1
2016-Jan-30 13:33N 34°43' E 139°39'1514.8
2016-Jan-30 12:31N 34°49' E 139°56'1415.0
2016-Jan-30 11:33N 34°57' E 140°11'1814.9
2016-Jan-30 10:23N 35°08' E 140°28'1314.6
2016-Jan-30 09:28N 35°17' E 140°39'1314.4
2016-Jan-30 08:33N 35°28' E 140°47'1514.6
2016-Jan-30 07:33N 35°41' E 140°57'1312.9
2016-Jan-30 06:32N 35°53' E 140°50'8 7.9
2016-Jan-30 05:33N 35°56' E 140°42'0 0.0
2016-Jan-29 20:21N 35°56' E 140°41'2 0.5
2016-Jan-29 16:33N 35°57' E 140°42'  
2016-Jan-26 20:30N 36°22' E 140°52'1414.4
2016-Jan-26 19:33N 36°08' E 140°47'1313.5
2016-Jan-26 18:33N 35°56' E 140°42'  
Track history (hours):
 
Tides and Currents Weather Stations Pressure Air Temp Water Temp Dewpoint Dewpoint Depression Visibility Wind Speed Wind Dir Waves Ship Positions

Hachinohemaru

Last reported at 2016-Feb-05 16:07 UTC. Time now 2016-Feb-07 17:21 UTC.
Position N 36°08' E 140°47'.

Length 168 m; draft 6.5 m.

Type: Cargo ship. MMSI: 431700018.

Date/timePositionNaut miles runAvg speedWind from/ knotsBaromVisibWave heightAir tempDewpointWater temp
2016-Feb-05 16:07N 36°08' E 140°47'814.2
2016-Feb-05 15:33N 36°00' E 140°43'5 0.3
2016-Feb-05 00:08N 35°56' E 140°41'0 0.1
2016-Feb-04 23:14N 35°56' E 140°41'0 0.1
2016-Feb-04 22:32N 35°56' E 140°41'0 0.0
2016-Feb-04 20:32N 35°56' E 140°41'0 0.0
2016-Feb-04 19:29N 35°56' E 140°41'5 5.7
2016-Feb-04 18:33N 35°58' E 140°47'1513.3
2016-Feb-04 17:26N 35°45' E 140°57'2513.0
2016-Feb-04 15:32N 35°23' E 140°45'3014.6
2016-Feb-04 13:31N 34°57' E 140°27'1413.6
2016-Feb-04 12:27N 34°46' E 140°16'1617.1
2016-Feb-04 11:30N 34°44' E 139°57'  
2016-Jan-30 17:33N 34°27' E 138°28'6015.1
2016-Jan-30 13:33N 34°43' E 139°39'1514.8
2016-Jan-30 12:31N 34°49' E 139°56'1415.0
2016-Jan-30 11:33N 34°57' E 140°11'1814.9
2016-Jan-30 10:23N 35°08' E 140°28'1314.6
2016-Jan-30 09:28N 35°17' E 140°39'1314.4
2016-Jan-30 08:33N 35°28' E 140°47'1514.6
2016-Jan-30 07:33N 35°41' E 140°57'1312.9
2016-Jan-30 06:32N 35°53' E 140°50'8 7.9
2016-Jan-30 05:33N 35°56' E 140°42'0 0.0
2016-Jan-29 20:21N 35°56' E 140°41'2 0.5
2016-Jan-29 16:33N 35°57' E 140°42'  
2016-Jan-26 20:30N 36°22' E 140°52'1414.4
2016-Jan-26 19:33N 36°08' E 140°47'1313.5
2016-Jan-26 18:33N 35°56' E 140°42'  

Dump ship's entire track history